sensor_id;sensor_type;location;lat;lon;timestamp;temperature;humidity
1225;DHT22;602;48.000;7.840;2023-04-28T00:00:09;16.10;99.90
1225;DHT22;602;48.000;7.840;2023-04-28T00:02:36;16.00;99.90
1225;DHT22;602;48.000;7.840;2023-04-28T00:05:03;15.90;99.90
1225;DHT22;602;48.000;7.840;2023-04-28T00:07:32;15.90;99.90
1225;DHT22;602;48.000;7.840;2023-04-28T00:09:59;15.90;99.90
1225;DHT22;602;48.000;7.840;2023-04-28T00:12:25;15.90;99.90
1225;DHT22;602;48.000;7.840;2023-04-28T00:14:52;15.90;99.90
1225;DHT22;602;48.000;7.840;2023-04-28T00:17:19;15.90;99.90
1225;DHT22;602;48.000;7.840;2023-04-28T00:19:46;16.10;99.90
1225;DHT22;602;48.000;7.840;2023-04-28T00:22:14;16.10;99.90
1225;DHT22;602;48.000;7.840;2023-04-28T00:24:42;16.10;99.90
1225;DHT22;602;48.000;7.840;2023-04-28T00:27:09;16.10;99.90
1225;DHT22;602;48.000;7.840;2023-04-28T00:29:36;16.10;99.90
1225;DHT22;602;48.000;7.840;2023-04-28T00:32:03;16.10;99.90
1225;DHT22;602;48.000;7.840;2023-04-28T00:34:31;16.10;99.90
1225;DHT22;602;48.000;7.840;2023-04-28T00:36:58;16.00;99.90
1225;DHT22;602;48.000;7.840;2023-04-28T00:39:25;16.00;99.90
1225;DHT22;602;48.000;7.840;2023-04-28T00:41:53;16.00;99.90
1225;DHT22;602;48.000;7.840;2023-04-28T00:44:23;16.10;99.90
1225;DHT22;602;48.000;7.840;2023-04-28T00:46:50;16.10;99.90
1225;DHT22;602;48.000;7.840;2023-04-28T00:49:17;16.10;99.90
1225;DHT22;602;48.000;7.840;2023-04-28T00:51:44;16.00;99.90
1225;DHT22;602;48.000;7.840;2023-04-28T00:54:12;15.90;99.90
1225;DHT22;602;48.000;7.840;2023-04-28T00:56:40;15.90;99.90
1225;DHT22;602;48.000;7.840;2023-04-28T00:59:09;15.80;99.90
1225;DHT22;602;48.000;7.840;2023-04-28T01:01:36;15.70;99.90
1225;DHT22;602;48.000;7.840;2023-04-28T01:04:03;15.80;99.90
1225;DHT22;602;48.000;7.840;2023-04-28T01:06:31;15.90;99.90
1225;DHT22;602;48.000;7.840;2023-04-28T01:08:58;15.90;99.90
1225;DHT22;602;48.000;7.840;2023-04-28T01:11:25;15.80;99.90
1225;DHT22;602;48.000;7.840;2023-04-28T01:13:52;15.80;99.90
1225;DHT22;602;48.000;7.840;2023-04-28T01:16:20;15.90;99.90
1225;DHT22;602;48.000;7.840;2023-04-28T01:18:47;16.00;99.90
1225;DHT22;602;48.000;7.840;2023-04-28T01:21:14;16.10;99.90
1225;DHT22;602;48.000;7.840;2023-04-28T01:23:54;16.10;99.90
1225;DHT22;602;48.000;7.840;2023-04-28T01:26:20;16.10;99.90
1225;DHT22;602;48.000;7.840;2023-04-28T01:28:47;16.00;99.90
1225;DHT22;602;48.000;7.840;2023-04-28T01:31:14;16.00;99.90
1225;DHT22;602;48.000;7.840;2023-04-28T01:33:41;16.00;99.90
1225;DHT22;602;48.000;7.840;2023-04-28T01:36:08;16.00;99.90
1225;DHT22;602;48.000;7.840;2023-04-28T01:38:35;16.00;99.90
1225;DHT22;602;48.000;7.840;2023-04-28T01:41:03;16.10;99.90
1225;DHT22;602;48.000;7.840;2023-04-28T01:43:30;16.10;99.90
1225;DHT22;602;48.000;7.840;2023-04-28T01:45:57;16.00;99.90
1225;DHT22;602;48.000;7.840;2023-04-28T01:48:24;16.00;99.90
1225;DHT22;602;48.000;7.840;2023-04-28T01:50:51;15.90;99.90
1225;DHT22;602;48.000;7.840;2023-04-28T01:56:05;15.70;99.90
1225;DHT22;602;48.000;7.840;2023-04-28T01:58:31;15.70;99.90
1225;DHT22;602;48.000;7.840;2023-04-28T02:00:58;15.50;99.90
1225;DHT22;602;48.000;7.840;2023-04-28T02:03:25;15.60;99.90
1225;DHT22;602;48.000;7.840;2023-04-28T02:05:53;15.50;99.90
1225;DHT22;602;48.000;7.840;2023-04-28T02:08:20;15.50;99.90
1225;DHT22;602;48.000;7.840;2023-04-28T02:10:47;15.40;99.90
1225;DHT22;602;48.000;7.840;2023-04-28T02:13:15;15.20;99.90
1225;DHT22;602;48.000;7.840;2023-04-28T02:15:42;15.10;99.90
1225;DHT22;602;48.000;7.840;2023-04-28T02:18:10;15.00;99.90
1225;DHT22;602;48.000;7.840;2023-04-28T02:20:36;14.80;99.90
1225;DHT22;602;48.000;7.840;2023-04-28T02:23:03;14.70;99.90
1225;DHT22;602;48.000;7.840;2023-04-28T02:25:30;14.50;99.90
1225;DHT22;602;48.000;7.840;2023-04-28T02:27:57;14.60;99.90
1225;DHT22;602;48.000;7.840;2023-04-28T02:30:26;14.50;99.90
1225;DHT22;602;48.000;7.840;2023-04-28T02:32:52;14.60;99.90
1225;DHT22;602;48.000;7.840;2023-04-28T02:35:19;14.60;99.90
1225;DHT22;602;48.000;7.840;2023-04-28T02:37:46;14.50;99.90
1225;DHT22;602;48.000;7.840;2023-04-28T02:40:13;14.30;99.90
1225;DHT22;602;48.000;7.840;2023-04-28T02:42:40;14.30;99.90
1225;DHT22;602;48.000;7.840;2023-04-28T02:45:07;14.10;99.90
1225;DHT22;602;48.000;7.840;2023-04-28T02:47:36;14.10;99.90
1225;DHT22;602;48.000;7.840;2023-04-28T02:50:03;14.00;99.90
1225;DHT22;602;48.000;7.840;2023-04-28T02:52:29;13.80;99.90
1225;DHT22;602;48.000;7.840;2023-04-28T02:54:56;13.80;99.90
1225;DHT22;602;48.000;7.840;2023-04-28T02:57:23;13.80;99.90
1225;DHT22;602;48.000;7.840;2023-04-28T02:59:50;13.60;99.90
1225;DHT22;602;48.000;7.840;2023-04-28T03:02:17;13.70;99.90
1225;DHT22;602;48.000;7.840;2023-04-28T03:04:46;13.60;99.90
1225;DHT22;602;48.000;7.840;2023-04-28T03:07:14;13.40;99.90
1225;DHT22;602;48.000;7.840;2023-04-28T03:09:41;13.40;99.90
1225;DHT22;602;48.000;7.840;2023-04-28T03:12:08;13.30;99.90
1225;DHT22;602;48.000;7.840;2023-04-28T03:14:35;13.30;99.90
1225;DHT22;602;48.000;7.840;2023-04-28T03:17:02;13.30;99.90
1225;DHT22;602;48.000;7.840;2023-04-28T03:19:28;13.30;99.90
1225;DHT22;602;48.000;7.840;2023-04-28T03:21:57;13.20;99.90
1225;DHT22;602;48.000;7.840;2023-04-28T03:24:24;13.20;99.90
1225;DHT22;602;48.000;7.840;2023-04-28T03:26:50;13.20;99.90
1225;DHT22;602;48.000;7.840;2023-04-28T03:29:17;13.10;99.90
1225;DHT22;602;48.000;7.840;2023-04-28T03:31:44;13.20;99.90
1225;DHT22;602;48.000;7.840;2023-04-28T03:34:11;13.20;99.90
1225;DHT22;602;48.000;7.840;2023-04-28T03:36:38;13.10;99.90
1225;DHT22;602;48.000;7.840;2023-04-28T03:39:06;13.20;99.90
1225;DHT22;602;48.000;7.840;2023-04-28T03:41:34;13.20;99.90
1225;DHT22;602;48.000;7.840;2023-04-28T03:44:01;13.30;99.90
1225;DHT22;602;48.000;7.840;2023-04-28T03:46:28;13.40;99.90
1225;DHT22;602;48.000;7.840;2023-04-28T03:48:54;13.50;99.90
1225;DHT22;602;48.000;7.840;2023-04-28T03:51:21;13.40;99.90
1225;DHT22;602;48.000;7.840;2023-04-28T03:53:48;13.50;99.90
1225;DHT22;602;48.000;7.840;2023-04-28T03:56:16;13.50;99.90
1225;DHT22;602;48.000;7.840;2023-04-28T03:58:43;13.50;99.90
1225;DHT22;602;48.000;7.840;2023-04-28T04:01:10;13.50;99.90
1225;DHT22;602;48.000;7.840;2023-04-28T04:03:37;13.40;99.90
1225;DHT22;602;48.000;7.840;2023-04-28T04:06:04;13.40;99.90
1225;DHT22;602;48.000;7.840;2023-04-28T04:08:31;13.40;99.90
1225;DHT22;602;48.000;7.840;2023-04-28T04:10:58;13.50;99.90
1225;DHT22;602;48.000;7.840;2023-04-28T04:13:26;13.60;99.90
1225;DHT22;602;48.000;7.840;2023-04-28T04:15:53;13.80;99.90
1225;DHT22;602;48.000;7.840;2023-04-28T04:18:20;13.80;99.90
1225;DHT22;602;48.000;7.840;2023-04-28T04:20:47;13.80;99.90
1225;DHT22;602;48.000;7.840;2023-04-28T04:23:14;13.80;99.90
1225;DHT22;602;48.000;7.840;2023-04-28T04:25:41;13.90;99.90
1225;DHT22;602;48.000;7.840;2023-04-28T04:28:08;13.90;99.90
1225;DHT22;602;48.000;7.840;2023-04-28T04:30:36;13.90;99.90
1225;DHT22;602;48.000;7.840;2023-04-28T04:33:03;14.00;99.90
1225;DHT22;602;48.000;7.840;2023-04-28T04:35:30;14.10;99.90
1225;DHT22;602;48.000;7.840;2023-04-28T04:37:57;14.10;99.90
1225;DHT22;602;48.000;7.840;2023-04-28T04:40:24;14.20;99.90
1225;DHT22;602;48.000;7.840;2023-04-28T04:42:51;14.20;99.90
1225;DHT22;602;48.000;7.840;2023-04-28T04:45:18;14.20;99.90
1225;DHT22;602;48.000;7.840;2023-04-28T04:47:46;14.20;99.90
1225;DHT22;602;48.000;7.840;2023-04-28T04:50:13;14.20;99.90
1225;DHT22;602;48.000;7.840;2023-04-28T04:52:40;14.30;99.90
1225;DHT22;602;48.000;7.840;2023-04-28T04:55:07;14.20;99.90
1225;DHT22;602;48.000;7.840;2023-04-28T04:57:35;14.30;99.90
1225;DHT22;602;48.000;7.840;2023-04-28T05:00:03;14.30;99.90
1225;DHT22;602;48.000;7.840;2023-04-28T05:02:30;14.30;99.90
1225;DHT22;602;48.000;7.840;2023-04-28T05:04:58;14.30;99.90
1225;DHT22;602;48.000;7.840;2023-04-28T05:07:25;14.30;99.90
1225;DHT22;602;48.000;7.840;2023-04-28T05:09:52;14.30;99.90
1225;DHT22;602;48.000;7.840;2023-04-28T05:12:19;14.30;99.90
1225;DHT22;602;48.000;7.840;2023-04-28T05:14:46;14.40;99.90
1225;DHT22;602;48.000;7.840;2023-04-28T05:17:13;14.40;99.90
1225;DHT22;602;48.000;7.840;2023-04-28T05:19:40;14.40;99.90
1225;DHT22;602;48.000;7.840;2023-04-28T05:22:08;14.40;99.90
1225;DHT22;602;48.000;7.840;2023-04-28T05:24:36;14.40;99.90
1225;DHT22;602;48.000;7.840;2023-04-28T05:27:02;14.50;99.90
1225;DHT22;602;48.000;7.840;2023-04-28T05:29:29;14.50;99.90
1225;DHT22;602;48.000;7.840;2023-04-28T05:31:56;14.50;99.90
1225;DHT22;602;48.000;7.840;2023-04-28T05:34:23;14.50;99.90
1225;DHT22;602;48.000;7.840;2023-04-28T05:40:14;14.50;99.90
1225;DHT22;602;48.000;7.840;2023-04-28T05:42:41;14.60;99.90
1225;DHT22;602;48.000;7.840;2023-04-28T05:45:09;14.50;99.90
1225;DHT22;602;48.000;7.840;2023-04-28T05:47:36;14.50;99.90
1225;DHT22;602;48.000;7.840;2023-04-28T05:50:04;14.60;99.90
1225;DHT22;602;48.000;7.840;2023-04-28T05:52:31;14.60;99.90
1225;DHT22;602;48.000;7.840;2023-04-28T05:54:58;14.60;99.90
1225;DHT22;602;48.000;7.840;2023-04-28T05:57:26;14.70;99.90
1225;DHT22;602;48.000;7.840;2023-04-28T05:59:53;14.70;99.90
1225;DHT22;602;48.000;7.840;2023-04-28T06:02:20;14.70;99.90
1225;DHT22;602;48.000;7.840;2023-04-28T06:04:46;14.70;99.90
1225;DHT22;602;48.000;7.840;2023-04-28T06:07:13;14.70;99.90
1225;DHT22;602;48.000;7.840;2023-04-28T06:09:40;14.70;99.90
1225;DHT22;602;48.000;7.840;2023-04-28T06:12:07;14.70;99.90
1225;DHT22;602;48.000;7.840;2023-04-28T06:14:41;14.70;99.90
1225;DHT22;602;48.000;7.840;2023-04-28T06:17:08;14.60;99.90
1225;DHT22;602;48.000;7.840;2023-04-28T06:19:35;14.60;99.90
1225;DHT22;602;48.000;7.840;2023-04-28T06:22:02;14.60;99.90
1225;DHT22;602;48.000;7.840;2023-04-28T06:24:29;14.70;99.90
1225;DHT22;602;48.000;7.840;2023-04-28T06:26:56;14.70;99.90
1225;DHT22;602;48.000;7.840;2023-04-28T06:29:23;14.70;99.90
1225;DHT22;602;48.000;7.840;2023-04-28T06:31:51;14.70;99.90
1225;DHT22;602;48.000;7.840;2023-04-28T06:34:23;14.80;99.90
1225;DHT22;602;48.000;7.840;2023-04-28T06:36:51;14.80;99.90
1225;DHT22;602;48.000;7.840;2023-04-28T06:39:18;14.80;99.90
1225;DHT22;602;48.000;7.840;2023-04-28T06:41:45;14.80;99.90
1225;DHT22;602;48.000;7.840;2023-04-28T06:44:12;14.80;99.90
1225;DHT22;602;48.000;7.840;2023-04-28T06:46:39;14.80;99.90
1225;DHT22;602;48.000;7.840;2023-04-28T06:49:08;14.80;99.90
1225;DHT22;602;48.000;7.840;2023-04-28T06:51:34;14.70;99.90
1225;DHT22;602;48.000;7.840;2023-04-28T06:54:02;14.70;99.90
1225;DHT22;602;48.000;7.840;2023-04-28T06:56:28;14.70;99.90
1225;DHT22;602;48.000;7.840;2023-04-28T06:58:56;14.70;99.90
1225;DHT22;602;48.000;7.840;2023-04-28T07:01:23;14.60;99.90
1225;DHT22;602;48.000;7.840;2023-04-28T07:03:50;14.60;99.90
1225;DHT22;602;48.000;7.840;2023-04-28T07:06:19;14.60;99.90
1225;DHT22;602;48.000;7.840;2023-04-28T07:08:46;14.60;99.90
1225;DHT22;602;48.000;7.840;2023-04-28T07:11:13;14.50;99.90
1225;DHT22;602;48.000;7.840;2023-04-28T07:13:41;14.60;99.90
1225;DHT22;602;48.000;7.840;2023-04-28T07:16:07;14.60;99.90
1225;DHT22;602;48.000;7.840;2023-04-28T07:18:35;14.60;99.90
1225;DHT22;602;48.000;7.840;2023-04-28T07:21:04;14.60;99.90
1225;DHT22;602;48.000;7.840;2023-04-28T07:23:33;14.60;99.90
1225;DHT22;602;48.000;7.840;2023-04-28T07:26:03;14.60;99.90
1225;DHT22;602;48.000;7.840;2023-04-28T07:28:30;14.70;99.90
1225;DHT22;602;48.000;7.840;2023-04-28T07:30:57;14.70;99.90
1225;DHT22;602;48.000;7.840;2023-04-28T07:33:24;14.70;99.90
1225;DHT22;602;48.000;7.840;2023-04-28T07:35:51;14.70;99.90
1225;DHT22;602;48.000;7.840;2023-04-28T07:38:18;14.70;99.90
1225;DHT22;602;48.000;7.840;2023-04-28T07:40:46;14.70;99.90
1225;DHT22;602;48.000;7.840;2023-04-28T07:43:13;14.70;99.90
1225;DHT22;602;48.000;7.840;2023-04-28T07:45:41;14.70;99.90
1225;DHT22;602;48.000;7.840;2023-04-28T07:48:10;14.70;99.90
1225;DHT22;602;48.000;7.840;2023-04-28T07:50:36;14.70;99.90
1225;DHT22;602;48.000;7.840;2023-04-28T07:53:03;14.70;99.90
1225;DHT22;602;48.000;7.840;2023-04-28T07:55:30;14.80;99.90
1225;DHT22;602;48.000;7.840;2023-04-28T07:57:59;14.80;99.90
1225;DHT22;602;48.000;7.840;2023-04-28T08:00:26;14.90;99.90
1225;DHT22;602;48.000;7.840;2023-04-28T08:02:53;14.90;99.90
1225;DHT22;602;48.000;7.840;2023-04-28T08:05:22;15.00;99.90
1225;DHT22;602;48.000;7.840;2023-04-28T08:07:49;15.00;99.90
1225;DHT22;602;48.000;7.840;2023-04-28T08:10:16;15.00;99.90
1225;DHT22;602;48.000;7.840;2023-04-28T08:12:43;15.10;99.90
1225;DHT22;602;48.000;7.840;2023-04-28T08:15:12;15.10;99.90
1225;DHT22;602;48.000;7.840;2023-04-28T08:17:39;15.10;99.90
1225;DHT22;602;48.000;7.840;2023-04-28T08:20:07;15.10;99.90
1225;DHT22;602;48.000;7.840;2023-04-28T08:22:34;15.10;99.90
1225;DHT22;602;48.000;7.840;2023-04-28T08:25:01;15.20;99.90
1225;DHT22;602;48.000;7.840;2023-04-28T08:27:28;15.10;99.90
1225;DHT22;602;48.000;7.840;2023-04-28T08:29:56;15.10;99.90
1225;DHT22;602;48.000;7.840;2023-04-28T08:32:24;15.00;99.90
1225;DHT22;602;48.000;7.840;2023-04-28T08:34:51;15.10;99.90
1225;DHT22;602;48.000;7.840;2023-04-28T08:37:18;15.10;99.90
1225;DHT22;602;48.000;7.840;2023-04-28T08:39:45;15.10;99.90
1225;DHT22;602;48.000;7.840;2023-04-28T08:42:13;15.10;99.90
1225;DHT22;602;48.000;7.840;2023-04-28T08:44:40;15.00;99.90
1225;DHT22;602;48.000;7.840;2023-04-28T08:47:11;15.10;99.90
1225;DHT22;602;48.000;7.840;2023-04-28T08:49:40;15.00;99.90
1225;DHT22;602;48.000;7.840;2023-04-28T08:52:10;14.90;99.90
1225;DHT22;602;48.000;7.840;2023-04-28T08:54:38;15.00;99.90
1225;DHT22;602;48.000;7.840;2023-04-28T08:57:08;15.00;99.90
1225;DHT22;602;48.000;7.840;2023-04-28T08:59:38;15.00;99.90
1225;DHT22;602;48.000;7.840;2023-04-28T09:02:06;15.00;99.90
1225;DHT22;602;48.000;7.840;2023-04-28T09:04:34;15.00;99.90
1225;DHT22;602;48.000;7.840;2023-04-28T09:07:02;15.00;99.90
1225;DHT22;602;48.000;7.840;2023-04-28T09:09:30;15.10;99.90
1225;DHT22;602;48.000;7.840;2023-04-28T09:11:58;15.10;99.90
1225;DHT22;602;48.000;7.840;2023-04-28T09:14:26;15.10;99.90
1225;DHT22;602;48.000;7.840;2023-04-28T09:16:53;15.10;99.90
1225;DHT22;602;48.000;7.840;2023-04-28T09:19:21;15.20;99.90
1225;DHT22;602;48.000;7.840;2023-04-28T09:21:50;15.20;99.90
1225;DHT22;602;48.000;7.840;2023-04-28T09:24:30;15.30;99.90
1225;DHT22;602;48.000;7.840;2023-04-28T09:26:57;15.30;99.90
1225;DHT22;602;48.000;7.840;2023-04-28T09:29:24;15.40;99.90
1225;DHT22;602;48.000;7.840;2023-04-28T09:31:51;15.40;99.90
1225;DHT22;602;48.000;7.840;2023-04-28T09:34:19;15.40;99.90
1225;DHT22;602;48.000;7.840;2023-04-28T09:36:46;15.40;99.90
1225;DHT22;602;48.000;7.840;2023-04-28T09:39:13;15.50;99.90
1225;DHT22;602;48.000;7.840;2023-04-28T09:41:42;15.60;99.90
1225;DHT22;602;48.000;7.840;2023-04-28T09:44:13;15.60;99.90
1225;DHT22;602;48.000;7.840;2023-04-28T09:46:41;15.60;99.90
1225;DHT22;602;48.000;7.840;2023-04-28T09:49:09;15.60;99.90
1225;DHT22;602;48.000;7.840;2023-04-28T09:51:36;15.60;99.90
1225;DHT22;602;48.000;7.840;2023-04-28T09:54:04;15.70;99.90
1225;DHT22;602;48.000;7.840;2023-04-28T09:56:32;15.70;99.90
1225;DHT22;602;48.000;7.840;2023-04-28T09:59:04;15.80;99.90
1225;DHT22;602;48.000;7.840;2023-04-28T10:01:32;15.90;99.90
1225;DHT22;602;48.000;7.840;2023-04-28T10:04:03;15.90;99.90
1225;DHT22;602;48.000;7.840;2023-04-28T10:06:33;15.90;99.90
1225;DHT22;602;48.000;7.840;2023-04-28T10:09:02;16.00;99.90
1225;DHT22;602;48.000;7.840;2023-04-28T10:11:29;16.00;99.90
1225;DHT22;602;48.000;7.840;2023-04-28T10:13:56;16.00;99.90
1225;DHT22;602;48.000;7.840;2023-04-28T10:16:28;16.00;99.90
1225;DHT22;602;48.000;7.840;2023-04-28T10:18:55;16.10;99.90
1225;DHT22;602;48.000;7.840;2023-04-28T10:21:24;16.20;99.90
1225;DHT22;602;48.000;7.840;2023-04-28T10:24:08;16.20;99.90
1225;DHT22;602;48.000;7.840;2023-04-28T10:27:06;16.30;99.90
1225;DHT22;602;48.000;7.840;2023-04-28T10:29:34;16.30;99.90
1225;DHT22;602;48.000;7.840;2023-04-28T10:32:22;16.30;99.90
1225;DHT22;602;48.000;7.840;2023-04-28T10:34:51;16.40;99.90
1225;DHT22;602;48.000;7.840;2023-04-28T10:37:18;16.50;99.90
1225;DHT22;602;48.000;7.840;2023-04-28T10:42:54;16.50;99.90
1225;DHT22;602;48.000;7.840;2023-04-28T10:51:35;16.70;99.90
1225;DHT22;602;48.000;7.840;2023-04-28T10:54:16;16.70;99.90
1225;DHT22;602;48.000;7.840;2023-04-28T10:57:16;16.90;99.90
1225;DHT22;602;48.000;7.840;2023-04-28T10:59:43;16.90;99.90
1225;DHT22;602;48.000;7.840;2023-04-28T11:05:15;17.30;99.90
1225;DHT22;602;48.000;7.840;2023-04-28T11:11:22;17.50;99.90
1225;DHT22;602;48.000;7.840;2023-04-28T11:13:53;17.70;99.90
1225;DHT22;602;48.000;7.840;2023-04-28T11:16:24;17.80;99.90
1225;DHT22;602;48.000;7.840;2023-04-28T11:18:56;17.90;99.90
1225;DHT22;602;48.000;7.840;2023-04-28T11:21:24;18.00;99.90
1225;DHT22;602;48.000;7.840;2023-04-28T11:23:53;18.10;99.90
1225;DHT22;602;48.000;7.840;2023-04-28T11:26:21;18.10;99.90
1225;DHT22;602;48.000;7.840;2023-04-28T11:28:50;18.10;99.90
1225;DHT22;602;48.000;7.840;2023-04-28T11:31:18;18.20;99.90
1225;DHT22;602;48.000;7.840;2023-04-28T11:33:53;18.20;99.90
1225;DHT22;602;48.000;7.840;2023-04-28T11:36:22;18.30;99.90
1225;DHT22;602;48.000;7.840;2023-04-28T11:38:50;18.30;99.90
1225;DHT22;602;48.000;7.840;2023-04-28T11:41:17;18.40;99.90
1225;DHT22;602;48.000;7.840;2023-04-28T11:43:45;18.50;99.90
1225;DHT22;602;48.000;7.840;2023-04-28T11:46:16;18.50;99.90
1225;DHT22;602;48.000;7.840;2023-04-28T11:48:43;18.60;99.90
1225;DHT22;602;48.000;7.840;2023-04-28T11:51:32;18.60;99.90
1225;DHT22;602;48.000;7.840;2023-04-28T11:54:00;18.70;99.90
1225;DHT22;602;48.000;7.840;2023-04-28T11:56:27;18.80;99.90
1225;DHT22;602;48.000;7.840;2023-04-28T11:59:05;18.80;99.90
1225;DHT22;602;48.000;7.840;2023-04-28T12:01:34;19.00;99.90
1225;DHT22;602;48.000;7.840;2023-04-28T12:04:09;19.20;99.90
1225;DHT22;602;48.000;7.840;2023-04-28T12:06:37;19.30;99.90
1225;DHT22;602;48.000;7.840;2023-04-28T12:09:14;19.40;99.90
1225;DHT22;602;48.000;7.840;2023-04-28T12:11:51;19.50;99.90
1225;DHT22;602;48.000;7.840;2023-04-28T12:14:19;19.70;99.90
1225;DHT22;602;48.000;7.840;2023-04-28T12:16:46;19.80;99.90
1225;DHT22;602;48.000;7.840;2023-04-28T12:19:14;19.90;99.90
1225;DHT22;602;48.000;7.840;2023-04-28T12:21:42;19.90;99.90
1225;DHT22;602;48.000;7.840;2023-04-28T12:24:16;19.90;99.90
1225;DHT22;602;48.000;7.840;2023-04-28T12:26:43;20.00;99.90
1225;DHT22;602;48.000;7.840;2023-04-28T12:29:35;20.10;99.90
1225;DHT22;602;48.000;7.840;2023-04-28T12:32:05;20.20;99.90
1225;DHT22;602;48.000;7.840;2023-04-28T12:34:32;20.40;99.90
1225;DHT22;602;48.000;7.840;2023-04-28T12:36:59;20.60;99.90
1225;DHT22;602;48.000;7.840;2023-04-28T12:39:26;20.70;99.90
1225;DHT22;602;48.000;7.840;2023-04-28T12:41:53;20.70;99.90
1225;DHT22;602;48.000;7.840;2023-04-28T12:44:20;20.80;99.90
1225;DHT22;602;48.000;7.840;2023-04-28T12:46:50;20.80;99.90
1225;DHT22;602;48.000;7.840;2023-04-28T12:49:17;20.70;99.90
1225;DHT22;602;48.000;7.840;2023-04-28T12:51:44;20.60;99.90
1225;DHT22;602;48.000;7.840;2023-04-28T12:54:12;20.70;99.90
1225;DHT22;602;48.000;7.840;2023-04-28T12:56:39;20.70;99.90
1225;DHT22;602;48.000;7.840;2023-04-28T12:59:05;20.70;99.90
1225;DHT22;602;48.000;7.840;2023-04-28T13:01:34;20.80;99.90
1225;DHT22;602;48.000;7.840;2023-04-28T13:04:03;20.90;99.90
1225;DHT22;602;48.000;7.840;2023-04-28T13:06:29;20.90;99.90
1225;DHT22;602;48.000;7.840;2023-04-28T13:08:57;20.90;99.90
1225;DHT22;602;48.000;7.840;2023-04-28T13:11:24;20.90;99.90
1225;DHT22;602;48.000;7.840;2023-04-28T13:13:52;20.90;99.90
1225;DHT22;602;48.000;7.840;2023-04-28T13:16:21;20.90;99.90
1225;DHT22;602;48.000;7.840;2023-04-28T13:18:50;20.80;99.90
1225;DHT22;602;48.000;7.840;2023-04-28T13:21:18;20.90;99.90
1225;DHT22;602;48.000;7.840;2023-04-28T13:23:45;20.90;99.90
1225;DHT22;602;48.000;7.840;2023-04-28T13:26:12;21.00;99.90
1225;DHT22;602;48.000;7.840;2023-04-28T13:28:39;21.20;99.90
1225;DHT22;602;48.000;7.840;2023-04-28T13:31:06;21.50;99.90
1225;DHT22;602;48.000;7.840;2023-04-28T13:33:33;21.70;99.90
1225;DHT22;602;48.000;7.840;2023-04-28T13:36:00;21.90;99.90
1225;DHT22;602;48.000;7.840;2023-04-28T13:38:28;22.00;99.90
1225;DHT22;602;48.000;7.840;2023-04-28T13:40:55;22.00;99.90
1225;DHT22;602;48.000;7.840;2023-04-28T13:43:22;22.00;99.90
1225;DHT22;602;48.000;7.840;2023-04-28T13:45:49;22.00;99.90
1225;DHT22;602;48.000;7.840;2023-04-28T13:48:17;22.00;99.90
1225;DHT22;602;48.000;7.840;2023-04-28T13:50:43;22.10;99.90
1225;DHT22;602;48.000;7.840;2023-04-28T13:53:11;22.20;99.90
1225;DHT22;602;48.000;7.840;2023-04-28T13:55:39;22.10;99.90
1225;DHT22;602;48.000;7.840;2023-04-28T13:58:06;22.10;99.90
1225;DHT22;602;48.000;7.840;2023-04-28T14:00:33;22.20;99.90
1225;DHT22;602;48.000;7.840;2023-04-28T14:03:01;22.10;99.90
1225;DHT22;602;48.000;7.840;2023-04-28T14:05:29;22.10;99.90
1225;DHT22;602;48.000;7.840;2023-04-28T14:07:56;22.00;99.90
1225;DHT22;602;48.000;7.840;2023-04-28T14:10:23;22.10;99.90
1225;DHT22;602;48.000;7.840;2023-04-28T14:12:52;22.00;99.90
1225;DHT22;602;48.000;7.840;2023-04-28T14:15:19;21.90;99.90
1225;DHT22;602;48.000;7.840;2023-04-28T14:17:47;22.00;99.90
1225;DHT22;602;48.000;7.840;2023-04-28T14:20:14;22.00;99.90
1225;DHT22;602;48.000;7.840;2023-04-28T14:22:41;21.90;99.90
1225;DHT22;602;48.000;7.840;2023-04-28T14:25:08;21.90;99.90
1225;DHT22;602;48.000;7.840;2023-04-28T14:27:35;21.70;99.90
1225;DHT22;602;48.000;7.840;2023-04-28T14:30:05;21.70;99.90
1225;DHT22;602;48.000;7.840;2023-04-28T14:32:32;21.70;99.90
1225;DHT22;602;48.000;7.840;2023-04-28T14:34:59;21.70;99.90
1225;DHT22;602;48.000;7.840;2023-04-28T14:37:29;21.60;99.90
1225;DHT22;602;48.000;7.840;2023-04-28T14:39:56;21.60;99.90
1225;DHT22;602;48.000;7.840;2023-04-28T14:42:27;21.60;99.90
1225;DHT22;602;48.000;7.840;2023-04-28T14:44:55;21.60;99.90
1225;DHT22;602;48.000;7.840;2023-04-28T14:47:23;21.60;99.90
1225;DHT22;602;48.000;7.840;2023-04-28T14:49:51;21.70;99.90
1225;DHT22;602;48.000;7.840;2023-04-28T14:52:19;21.70;99.90
1225;DHT22;602;48.000;7.840;2023-04-28T14:54:46;21.70;99.90
1225;DHT22;602;48.000;7.840;2023-04-28T14:57:13;21.70;99.90
1225;DHT22;602;48.000;7.840;2023-04-28T14:59:40;21.70;99.90
1225;DHT22;602;48.000;7.840;2023-04-28T15:02:08;21.70;99.90
1225;DHT22;602;48.000;7.840;2023-04-28T15:04:37;21.70;99.90
1225;DHT22;602;48.000;7.840;2023-04-28T15:07:04;21.80;99.90
1225;DHT22;602;48.000;7.840;2023-04-28T15:09:32;21.70;99.90
1225;DHT22;602;48.000;7.840;2023-04-28T15:12:00;21.70;99.90
1225;DHT22;602;48.000;7.840;2023-04-28T15:14:27;21.60;99.90
1225;DHT22;602;48.000;7.840;2023-04-28T15:16:54;21.70;99.90
1225;DHT22;602;48.000;7.840;2023-04-28T15:19:21;21.80;99.90
1225;DHT22;602;48.000;7.840;2023-04-28T15:21:50;21.90;99.90
1225;DHT22;602;48.000;7.840;2023-04-28T15:24:18;21.90;99.90
1225;DHT22;602;48.000;7.840;2023-04-28T15:26:45;21.90;99.90
1225;DHT22;602;48.000;7.840;2023-04-28T15:29:12;21.80;99.90
1225;DHT22;602;48.000;7.840;2023-04-28T15:31:39;21.80;99.90
1225;DHT22;602;48.000;7.840;2023-04-28T15:34:06;21.60;99.90
1225;DHT22;602;48.000;7.840;2023-04-28T15:36:35;21.50;99.90
1225;DHT22;602;48.000;7.840;2023-04-28T15:39:04;21.50;99.90
1225;DHT22;602;48.000;7.840;2023-04-28T15:41:32;21.60;99.90
1225;DHT22;602;48.000;7.840;2023-04-28T15:43:59;21.60;99.90
1225;DHT22;602;48.000;7.840;2023-04-28T15:46:26;21.50;99.90
1225;DHT22;602;48.000;7.840;2023-04-28T15:48:53;21.60;99.90
1225;DHT22;602;48.000;7.840;2023-04-28T15:51:20;21.40;99.90
1225;DHT22;602;48.000;7.840;2023-04-28T15:53:47;21.30;99.90
1225;DHT22;602;48.000;7.840;2023-04-28T15:56:17;21.30;99.90
1225;DHT22;602;48.000;7.840;2023-04-28T15:58:43;21.20;99.90
1225;DHT22;602;48.000;7.840;2023-04-28T16:01:10;21.20;99.90
1225;DHT22;602;48.000;7.840;2023-04-28T16:03:37;21.20;99.90
1225;DHT22;602;48.000;7.840;2023-04-28T16:06:04;21.20;99.90
1225;DHT22;602;48.000;7.840;2023-04-28T16:08:32;21.30;99.90
1225;DHT22;602;48.000;7.840;2023-04-28T16:11:00;21.20;99.90
1225;DHT22;602;48.000;7.840;2023-04-28T16:13:28;21.20;99.90
1225;DHT22;602;48.000;7.840;2023-04-28T16:15:57;21.30;99.90
1225;DHT22;602;48.000;7.840;2023-04-28T16:18:24;21.30;99.90
1225;DHT22;602;48.000;7.840;2023-04-28T16:20:51;21.30;99.90
1225;DHT22;602;48.000;7.840;2023-04-28T16:23:18;21.30;99.90
1225;DHT22;602;48.000;7.840;2023-04-28T16:25:45;21.20;99.90
1225;DHT22;602;48.000;7.840;2023-04-28T16:28:15;21.20;99.90
1225;DHT22;602;48.000;7.840;2023-04-28T16:30:43;21.20;99.90
1225;DHT22;602;48.000;7.840;2023-04-28T16:33:10;21.30;99.90
1225;DHT22;602;48.000;7.840;2023-04-28T16:35:37;21.40;99.90
1225;DHT22;602;48.000;7.840;2023-04-28T16:38:04;21.40;99.90
1225;DHT22;602;48.000;7.840;2023-04-28T16:40:30;21.40;99.90
1225;DHT22;602;48.000;7.840;2023-04-28T16:42:57;21.50;99.90